Salem, Oregon
Current Conditions -  °F | °C
As of 7:56 PM on Saturday 22 Nov 2014 (Local Time) from KSLE Reporting Station
Overcast Overcast  
Wind Chill: 39°   Ceiling: 6000
Heat Index: 44°   Visibility: 10mi
Dew Point: 41°   Wind: 9mph
Humidity: 89%   Direction: 140°SE
Pressure: 30.18"   Gusts: NA
Location:  44.93°N, 123.04°W
Report Text: KSLE 230356Z 14008KT 10SM BKN060 OVC075 07/05 A3018 RMK AO2 SLP219 T00670050
Loading
Personal Weather Stations






























Interactive Weather Map New forecast layout! Learn more

10-Day Weather Forecast

Advertisements
Track Severe Weather on mobile